ETD203 VABB-OMAA
Flight info
| Callsign | ETD203 |
|---|---|
| Flight time | N/A |
| Altitude | 38000 |
| Route | RAXET2A SAKUN V1 BIMOT DCT DOGET DCT PARAR M628 TULBU N563 NOBTO |
| Aircraft | A20N/M-SDE2E3FGHIRWXY/LB1 |
Departure
| Time | N/A |
|---|---|
| Airport | Chhatrapati Shivaji Maharaj International Airport (VABB) |
Arrival
| Time | 2026-04-27 20:48 |
|---|---|
| Airport | Zayed International Airport (OMAA) |
| Time | Latitude | Longitude | Altitude | Speed | Heading |
|---|---|---|---|---|---|
| 2026-04-27 20:20 | 23.51734 | 56.21315 | 30939 ft | 430 kts | 295° |
| 2026-04-27 20:20 | 23.53085 | 56.18420 | 30191 ft | 424 kts | 295° |
| 2026-04-27 20:21 | 23.54409 | 56.15582 | 29387 ft | 416 kts | 294° |
| 2026-04-27 20:21 | 23.55689 | 56.12836 | 28833 ft | 403 kts | 294° |
| 2026-04-27 20:21 | 23.56930 | 56.10177 | 28525 ft | 386 kts | 294° |
| 2026-04-27 20:21 | 23.58138 | 56.07581 | 28027 ft | 381 kts | 294° |
| 2026-04-27 20:22 | 23.59335 | 56.05003 | 27495 ft | 379 kts | 294° |
| 2026-04-27 20:22 | 23.60521 | 56.02445 | 26974 ft | 377 kts | 294° |
| 2026-04-27 20:22 | 23.61701 | 55.99898 | 26461 ft | 375 kts | 294° |
| 2026-04-27 20:22 | 23.62878 | 55.97359 | 25955 ft | 373 kts | 295° |
| 2026-04-27 20:23 | 23.64035 | 55.94863 | 25448 ft | 372 kts | 295° |
| 2026-04-27 20:23 | 23.65201 | 55.92347 | 24926 ft | 371 kts | 295° |
| 2026-04-27 20:23 | 23.66363 | 55.89839 | 24422 ft | 370 kts | 295° |
| 2026-04-27 20:23 | 23.67523 | 55.87333 | 23900 ft | 369 kts | 295° |
| 2026-04-27 20:24 | 23.68683 | 55.84828 | 23358 ft | 368 kts | 295° |
| 2026-04-27 20:24 | 23.69841 | 55.82325 | 22770 ft | 367 kts | 295° |
| 2026-04-27 20:24 | 23.70975 | 55.79872 | 22253 ft | 364 kts | 295° |
| 2026-04-27 20:24 | 23.72114 | 55.77408 | 21742 ft | 361 kts | 295° |
| 2026-04-27 20:25 | 23.73243 | 55.74962 | 21220 ft | 359 kts | 295° |
| 2026-04-27 20:25 | 23.74347 | 55.72568 | 20716 ft | 356 kts | 295° |
| 2026-04-27 20:25 | 23.75461 | 55.70152 | 20195 ft | 355 kts | 295° |
| 2026-04-27 20:25 | 23.76568 | 55.67749 | 19691 ft | 353 kts | 295° |
| 2026-04-27 20:26 | 23.77672 | 55.65350 | 19168 ft | 352 kts | 295° |
| 2026-04-27 20:26 | 23.78774 | 55.62957 | 18650 ft | 351 kts | 295° |
| 2026-04-27 20:26 | 23.79856 | 55.60607 | 18151 ft | 350 kts | 295° |
| 2026-04-27 20:26 | 23.80949 | 55.58230 | 17586 ft | 349 kts | 295° |
| 2026-04-27 20:27 | 23.82040 | 55.55856 | 17071 ft | 346 kts | 295° |
| 2026-04-27 20:27 | 23.83112 | 55.53506 | 16574 ft | 344 kts | 294° |
| 2026-04-27 20:27 | 23.84120 | 55.51180 | 16065 ft | 341 kts | 293° |
| 2026-04-27 20:27 | 23.85100 | 55.48827 | 15546 ft | 339 kts | 292° |
| 2026-04-27 20:28 | 23.86057 | 55.46477 | 15040 ft | 337 kts | 292° |
| 2026-04-27 20:28 | 23.87012 | 55.44133 | 14536 ft | 336 kts | 292° |
| 2026-04-27 20:28 | 23.87964 | 55.41810 | 14034 ft | 335 kts | 292° |
| 2026-04-27 20:28 | 23.88593 | 55.40277 | 13782 ft | 331 kts | 292° |
| 2026-04-27 20:29 | 23.89829 | 55.37276 | 13506 ft | 316 kts | 293° |
| 2026-04-27 20:29 | 23.90707 | 55.35143 | 13297 ft | 306 kts | 293° |
| 2026-04-27 20:29 | 23.91573 | 55.33041 | 12945 ft | 301 kts | 293° |
| 2026-04-27 20:29 | 23.92451 | 55.30979 | 12668 ft | 297 kts | 295° |
| 2026-04-27 20:30 | 23.93379 | 55.28966 | 12480 ft | 296 kts | 296° |
| 2026-04-27 20:30 | 23.94322 | 55.26964 | 12311 ft | 296 kts | 296° |
| 2026-04-27 20:30 | 23.95266 | 55.24964 | 12126 ft | 295 kts | 297° |
| 2026-04-27 20:30 | 23.96193 | 55.23001 | 11961 ft | 294 kts | 297° |
| 2026-04-27 20:31 | 23.97125 | 55.21029 | 11793 ft | 287 kts | 297° |
| 2026-04-27 20:31 | 23.98027 | 55.19116 | 11632 ft | 277 kts | 297° |
| 2026-04-27 20:31 | 23.98895 | 55.17273 | 11460 ft | 268 kts | 297° |
| 2026-04-27 20:31 | 23.99744 | 55.15471 | 11303 ft | 266 kts | 297° |
| 2026-04-27 20:32 | 24.00585 | 55.13692 | 11110 ft | 266 kts | 298° |
| 2026-04-27 20:32 | 24.01652 | 55.12053 | 10936 ft | 264 kts | 316° |
| 2026-04-27 20:32 | 24.03199 | 55.11003 | 10790 ft | 264 kts | 341° |
| 2026-04-27 20:32 | 24.05029 | 55.10816 | 10644 ft | 267 kts | 4° |
| 2026-04-27 20:33 | 24.06866 | 55.11170 | 10449 ft | 269 kts | 9° |
| 2026-04-27 20:33 | 24.08697 | 55.11633 | 10069 ft | 270 kts | 11° |
| 2026-04-27 20:33 | 24.10523 | 55.12106 | 9729 ft | 268 kts | 11° |
| 2026-04-27 20:33 | 24.12313 | 55.12561 | 9364 ft | 267 kts | 10° |
| 2026-04-27 20:34 | 24.14115 | 55.13014 | 8989 ft | 265 kts | 10° |
| 2026-04-27 20:34 | 24.15914 | 55.13461 | 8614 ft | 263 kts | 10° |
| 2026-04-27 20:34 | 24.17702 | 55.13903 | 8258 ft | 262 kts | 10° |
| 2026-04-27 20:34 | 24.18878 | 55.14193 | 8015 ft | 261 kts | 9° |
| 2026-04-27 20:35 | 24.20640 | 55.14626 | 7651 ft | 259 kts | 9° |
| 2026-04-27 20:35 | 24.22967 | 55.15196 | 7182 ft | 256 kts | 9° |
| 2026-04-27 20:35 | 24.24142 | 55.15485 | 6947 ft | 255 kts | 9° |
| 2026-04-27 20:35 | 24.25859 | 55.15844 | 6602 ft | 252 kts | 2° |
| 2026-04-27 20:36 | 24.27579 | 55.15767 | 6330 ft | 243 kts | 345° |
| 2026-04-27 20:36 | 24.29116 | 55.15095 | 6084 ft | 236 kts | 325° |
| 2026-04-27 20:36 | 24.30274 | 55.13836 | 5848 ft | 235 kts | 303° |
| 2026-04-27 20:36 | 24.30831 | 55.12179 | 5619 ft | 233 kts | 279° |
| 2026-04-27 20:37 | 24.30801 | 55.11154 | 5510 ft | 233 kts | 263° |
| 2026-04-27 20:37 | 24.30076 | 55.09597 | 5372 ft | 236 kts | 229° |
| 2026-04-27 20:37 | 24.28620 | 55.08707 | 5218 ft | 249 kts | 195° |
| 2026-04-27 20:37 | 24.26886 | 55.08515 | 4956 ft | 256 kts | 186° |
| 2026-04-27 20:38 | 24.25143 | 55.08231 | 4695 ft | 249 kts | 207° |
| 2026-04-27 20:38 | 24.23663 | 55.07316 | 4510 ft | 243 kts | 220° |
| 2026-04-27 20:38 | 24.22306 | 55.06217 | 4299 ft | 243 kts | 223° |
| 2026-04-27 20:38 | 24.20980 | 55.05075 | 4090 ft | 241 kts | 226° |
| 2026-04-27 20:39 | 24.20144 | 55.03597 | 4032 ft | 221 kts | 267° |
| 2026-04-27 20:39 | 24.20216 | 55.01977 | 4035 ft | 215 kts | 287° |
| 2026-04-27 20:39 | 24.20725 | 55.00443 | 4026 ft | 214 kts | 301° |
| 2026-04-27 20:39 | 24.21521 | 54.99077 | 4029 ft | 212 kts | 308° |
| 2026-04-27 20:40 | 24.22418 | 54.97789 | 4025 ft | 213 kts | 310° |
| 2026-04-27 20:40 | 24.23329 | 54.96511 | 4023 ft | 212 kts | 310° |
| 2026-04-27 20:40 | 24.24240 | 54.95236 | 4022 ft | 212 kts | 310° |
| 2026-04-27 20:40 | 24.25151 | 54.93961 | 4027 ft | 213 kts | 310° |
| 2026-04-27 20:41 | 24.26056 | 54.92693 | 4016 ft | 213 kts | 310° |
| 2026-04-27 20:41 | 24.26968 | 54.91411 | 4018 ft | 212 kts | 310° |
| 2026-04-27 20:41 | 24.27865 | 54.90145 | 4036 ft | 209 kts | 310° |
| 2026-04-27 20:41 | 24.28760 | 54.88879 | 4017 ft | 211 kts | 309° |
| 2026-04-27 20:42 | 24.29633 | 54.87643 | 3999 ft | 198 kts | 310° |
| 2026-04-27 20:42 | 24.30456 | 54.86477 | 4004 ft | 191 kts | 309° |
| 2026-04-27 20:42 | 24.31270 | 54.85327 | 3976 ft | 190 kts | 310° |
| 2026-04-27 20:42 | 24.32066 | 54.84207 | 3793 ft | 185 kts | 310° |
| 2026-04-27 20:43 | 24.32655 | 54.83379 | 3607 ft | 181 kts | 310° |
| 2026-04-27 20:43 | 24.33421 | 54.82296 | 3341 ft | 177 kts | 310° |
| 2026-04-27 20:43 | 24.34165 | 54.81245 | 3100 ft | 171 kts | 310° |
| 2026-04-27 20:43 | 24.34875 | 54.80244 | 2880 ft | 165 kts | 310° |
| 2026-04-27 20:44 | 24.35563 | 54.79272 | 2678 ft | 158 kts | 310° |
| 2026-04-27 20:44 | 24.36225 | 54.78338 | 2474 ft | 151 kts | 310° |
| 2026-04-27 20:44 | 24.36854 | 54.77449 | 2306 ft | 148 kts | 310° |
| 2026-04-27 20:44 | 24.37496 | 54.76544 | 2112 ft | 151 kts | 310° |
| 2026-04-27 20:45 | 24.38138 | 54.75635 | 1928 ft | 150 kts | 309° |
| 2026-04-27 20:45 | 24.38767 | 54.74747 | 1741 ft | 148 kts | 309° |
| 2026-04-27 20:45 | 24.39405 | 54.73851 | 1558 ft | 149 kts | 309° |
| 2026-04-27 20:45 | 24.40021 | 54.72981 | 1366 ft | 139 kts | 309° |
| 2026-04-27 20:46 | 24.40612 | 54.72142 | 1186 ft | 138 kts | 309° |
| 2026-04-27 20:46 | 24.41201 | 54.71309 | 1008 ft | 138 kts | 309° |
| 2026-04-27 20:46 | 24.41792 | 54.70479 | 845 ft | 138 kts | 307° |
| 2026-04-27 20:46 | 24.42388 | 54.69644 | 697 ft | 139 kts | 307° |
| 2026-04-27 20:47 | 24.42961 | 54.68822 | 497 ft | 136 kts | 306° |
| 2026-04-27 20:47 | 24.43552 | 54.68014 | 324 ft | 136 kts | 305° |
| 2026-04-27 20:47 | 24.44126 | 54.67187 | 183 ft | 136 kts | 304° |
| 2026-04-27 20:47 | 24.44705 | 54.66375 | 93 ft | 131 kts | 305° |
| 2026-04-27 20:48 | 24.45167 | 54.65708 | 90 ft | 86 kts | 309° |
| 2026-04-27 20:48 | 24.45427 | 54.65348 | 89 ft | 43 kts | 307° |
| 2026-04-27 20:48 | 24.45581 | 54.65102 | 88 ft | 39 kts | 300° |
| 2026-04-27 20:48 | 24.45647 | 54.64869 | 90 ft | 18 kts | 279° |
| 2026-04-27 20:49 | 24.45664 | 54.64739 | 93 ft | 16 kts | 283° |
| 2026-04-27 20:49 | 24.45699 | 54.64633 | 93 ft | 13 kts | 274° |
| 2026-04-27 20:49 | 24.45656 | 54.64571 | 95 ft | 11 kts | 221° |
| 2026-04-27 20:49 | 24.45593 | 54.64513 | 96 ft | 13 kts | 219° |
| 2026-04-27 20:50 | 24.45519 | 54.64450 | 96 ft | 15 kts | 218° |
| 2026-04-27 20:50 | 24.45432 | 54.64384 | 95 ft | 15 kts | 205° |
| 2026-04-27 20:50 | 24.45345 | 54.64424 | 95 ft | 15 kts | 130° |
| 2026-04-27 20:50 | 24.45297 | 54.64537 | 95 ft | 17 kts | 101° |
| 2026-04-27 20:51 | 24.45277 | 54.64661 | 95 ft | 17 kts | 100° |
| 2026-04-27 20:51 | 24.45254 | 54.64786 | 95 ft | 17 kts | 105° |
| 2026-04-27 20:51 | 24.45223 | 54.64907 | 94 ft | 15 kts | 105° |
| 2026-04-27 20:51 | 24.45186 | 54.65000 | 95 ft | 12 kts | 123° |
| 2026-04-27 20:52 | 24.45137 | 54.65024 | 95 ft | 7 kts | 218° |
| 2026-04-27 20:52 | 24.45102 | 54.64980 | 98 ft | 8 kts | 231° |
| 2026-04-27 20:52 | 24.45094 | 54.64969 | 97 ft | 0 kts | 230° |